createdAt,value
2022-10-01T00:00:21.821Z,26.90
2022-10-01T00:01:24.821Z,24.10
2022-10-01T00:02:29.401Z,25.25
2022-10-01T00:03:33.838Z,26.13
2022-10-01T00:04:37.915Z,25.95
2022-10-01T00:05:46.079Z,26.23
2022-10-01T00:06:48.242Z,26.60
2022-10-01T00:07:51.709Z,26.30
2022-10-01T00:08:57.767Z,27.08
2022-10-01T00:10:01.084Z,25.83
2022-10-01T00:12:32.715Z,25.45
2022-10-01T00:13:38.750Z,26.05
2022-10-01T00:14:40.859Z,26.83
2022-10-01T00:15:47.234Z,26.63
2022-10-01T00:16:51.313Z,27.30
2022-10-01T00:17:58.079Z,27.90
2022-10-01T00:19:00.738Z,26.98
2022-10-01T00:20:14.023Z,27.25
2022-10-01T00:21:21.584Z,26.98
2022-10-01T00:22:27.036Z,26.77
2022-10-01T00:23:29.126Z,27.75
2022-10-01T00:24:38.674Z,26.63
2022-10-01T00:25:41.958Z,27.27
2022-10-01T00:26:48.975Z,27.25
2022-10-01T00:27:52.422Z,27.55
2022-10-01T00:29:25.317Z,27.17
2022-10-01T00:30:27.677Z,28.25
2022-10-01T00:31:30.871Z,27.58
2022-10-01T00:32:36.400Z,26.95
2022-10-01T00:33:41.086Z,25.92
2022-10-01T00:34:43.819Z,27.35
2022-10-01T00:35:46.295Z,26.45
2022-10-01T00:36:49.491Z,27.33
2022-10-01T00:37:54.868Z,28.08
2022-10-01T00:39:00.961Z,27.48
2022-10-01T00:40:09.739Z,27.80
2022-10-01T00:41:14.468Z,27.08
2022-10-01T00:42:27.170Z,27.13
2022-10-01T00:43:32.696Z,26.05
2022-10-01T00:44:37.547Z,28.48
2022-10-01T00:45:39.808Z,27.45
2022-10-01T00:46:45.078Z,29.35
2022-10-01T00:47:57.525Z,29.65
2022-10-01T00:49:13.843Z,28.88
2022-10-01T00:50:35.028Z,28.13
2022-10-01T00:51:47.126Z,29.30
2022-10-01T00:52:58.547Z,28.40
2022-10-01T00:54:12.512Z,28.27
2022-10-01T00:55:23.168Z,29.95
2022-10-01T00:56:33.293Z,29.35
2022-10-01T00:57:36.709Z,28.60
2022-10-01T00:58:42.146Z,28.70
2022-10-01T00:59:45.923Z,29.17
2022-10-01T01:00:58.143Z,30.33
2022-10-01T01:02:04.110Z,29.70
2022-10-01T01:03:11.234Z,29.60
2022-10-01T01:04:18.929Z,29.55
2022-10-01T01:05:23.580Z,29.58
2022-10-01T01:06:26.966Z,29.80
2022-10-01T01:07:32.685Z,30.40
2022-10-01T01:08:37.675Z,31.42
2022-10-01T01:09:48.811Z,29.92
2022-10-01T01:11:05.300Z,29.60
2022-10-01T01:12:10.260Z,29.73
2022-10-01T01:13:27.318Z,29.90
2022-10-01T01:15:04.907Z,31.15
2022-10-01T01:16:16.624Z,30.10
2022-10-01T01:17:52.721Z,30.50
2022-10-01T01:19:43.919Z,29.35
2022-10-01T01:20:56.625Z,29.63
2022-10-01T01:22:04.594Z,29.85
2022-10-01T01:23:16.607Z,30.40
2022-10-01T01:24:51.901Z,32.03
2022-10-01T01:26:06.060Z,30.52
2022-10-01T01:27:29.432Z,29.45
2022-10-01T01:28:39.241Z,29.50
2022-10-01T01:29:55.715Z,31.58
2022-10-01T01:31:25.150Z,30.98
2022-10-01T01:32:42.943Z,32.58
2022-10-01T01:33:49.957Z,31.85
2022-10-01T01:34:59.206Z,33.60
2022-10-01T01:36:18.485Z,30.65
2022-10-01T01:37:29.936Z,31.27
2022-10-01T01:38:39.276Z,30.35
2022-10-01T01:39:51.798Z,31.27
2022-10-01T01:41:02.089Z,30.85
2022-10-01T01:42:11.550Z,32.17
2022-10-01T01:43:18.807Z,31.95
2022-10-01T01:44:31.814Z,31.55
2022-10-01T01:45:43.530Z,32.58
2022-10-01T01:46:50.303Z,34.92
2022-10-01T01:47:56.304Z,34.08
2022-10-01T01:49:05.505Z,33.53
2022-10-01T01:50:09.904Z,34.08
2022-10-01T01:51:27.547Z,33.65
2022-10-01T01:52:30.973Z,32.28
2022-10-01T01:53:34.099Z,32.63
2022-10-01T01:54:39.677Z,32.88
2022-10-01T01:55:46.097Z,33.90
2022-10-01T01:56:51.671Z,32.83
2022-10-01T01:58:01.026Z,33.28
2022-10-01T01:59:06.622Z,32.42
2022-10-01T02:00:13.724Z,32.42
2022-10-01T02:01:36.562Z,33.00
2022-10-01T02:02:42.035Z,32.15
2022-10-01T02:03:44.303Z,32.08
2022-10-01T02:05:04.109Z,32.55
2022-10-01T02:06:33.819Z,32.42
2022-10-01T02:07:56.644Z,32.25
2022-10-01T02:09:34.075Z,32.60
2022-10-01T02:10:53.875Z,31.33
2022-10-01T02:12:16.342Z,31.48
2022-10-01T02:13:53.297Z,32.35
2022-10-01T02:19:03.722Z,30.98
2022-10-01T02:20:33.088Z,32.40
2022-10-01T02:21:53.311Z,32.08
2022-10-01T02:23:18.857Z,30.67
2022-10-01T02:24:49.586Z,31.70
2022-10-01T02:26:07.594Z,32.03
2022-10-01T02:29:23.863Z,31.65
2022-10-01T02:30:33.444Z,30.88
2022-10-01T02:31:55.056Z,32.60
2022-10-01T02:33:06.040Z,32.75
2022-10-01T02:35:58.571Z,32.60
2022-10-01T02:37:11.374Z,33.08
2022-10-01T02:38:24.581Z,32.10
2022-10-01T02:39:32.371Z,33.72
2022-10-01T02:40:45.529Z,33.33
2022-10-01T02:41:55.030Z,34.70
2022-10-01T02:48:09.017Z,31.20
2022-10-01T02:49:16.715Z,32.80
2022-10-01T02:50:34.742Z,34.23
2022-10-01T02:51:49.669Z,32.60
2022-10-01T02:53:45.509Z,32.28
2022-10-01T02:55:01.192Z,32.33
2022-10-01T02:56:48.553Z,32.15
2022-10-01T02:58:06.385Z,33.88
2022-10-01T03:01:57.116Z,32.38
2022-10-01T03:04:22.791Z,34.05
2022-10-01T03:05:47.551Z,33.97
2022-10-01T03:10:04.343Z,34.55
2022-10-01T03:11:22.650Z,35.30
2022-10-01T03:12:36.646Z,34.20
2022-10-01T03:15:24.028Z,34.60
2022-10-01T03:21:36.182Z,31.65
2022-10-01T03:23:15.711Z,34.42
2022-10-01T03:29:13.019Z,34.28
2022-10-01T03:30:40.539Z,34.08
2022-10-01T03:33:15.754Z,35.47
2022-10-01T03:34:26.873Z,34.17
2022-10-01T03:35:36.818Z,34.50
2022-10-01T03:38:04.486Z,35.90
2022-10-01T03:39:18.958Z,34.13
2022-10-01T03:47:58.256Z,32.38
2022-10-01T03:49:04.028Z,34.95
2022-10-01T03:50:22.465Z,36.05
2022-10-01T03:51:47.728Z,34.78
2022-10-01T03:55:49.388Z,36.08
2022-10-01T03:56:56.248Z,36.50
2022-10-01T03:59:38.163Z,36.10
2022-10-01T04:02:14.477Z,34.78
2022-10-01T04:04:51.294Z,37.53
2022-10-01T04:06:07.064Z,36.50
2022-10-01T04:07:15.320Z,37.63
2022-10-01T04:09:42.668Z,36.90
2022-10-01T04:13:36.396Z,35.88
2022-10-01T04:16:06.101Z,35.75
2022-10-01T04:29:47.064Z,34.42
2022-10-01T04:31:27.388Z,32.00
2022-10-01T04:32:34.887Z,32.70
2022-10-01T04:41:38.028Z,29.95
2022-10-01T06:11:04.649Z,28.27
2022-10-01T06:13:30.263Z,28.50
2022-10-01T06:14:36.616Z,30.10
2022-10-01T06:15:57.327Z,30.35
2022-10-01T06:17:02.642Z,29.42
2022-10-01T06:18:19.026Z,27.33
2022-10-01T06:19:26.715Z,29.88
2022-10-01T06:20:35.074Z,29.92
2022-10-01T06:21:40.196Z,29.58
2022-10-01T06:22:44.529Z,29.50
2022-10-01T06:24:05.161Z,28.13
2022-10-01T06:25:18.418Z,30.75
2022-10-01T06:26:22.733Z,30.02
2022-10-01T06:27:29.742Z,28.73
2022-10-01T06:28:34.661Z,30.25
2022-10-01T06:29:50.729Z,29.02
2022-10-01T06:30:55.667Z,28.85
2022-10-01T06:32:01.146Z,28.05
2022-10-01T06:33:24.381Z,27.23
2022-10-01T06:34:28.270Z,29.35
2022-10-01T06:35:35.838Z,28.77
2022-10-01T06:37:54.759Z,27.77
2022-10-01T06:39:07.977Z,28.10
2022-10-01T06:40:17.235Z,28.38
2022-10-01T06:41:23.188Z,27.77
2022-10-01T06:42:28.049Z,28.27
2022-10-01T06:43:34.981Z,27.10
2022-10-01T06:44:41.617Z,28.40
2022-10-01T06:45:45.662Z,29.30
2022-10-01T06:46:49.247Z,28.55
2022-10-01T06:48:13.780Z,28.33
2022-10-01T06:49:21.940Z,28.77
2022-10-01T06:50:26.032Z,29.02
2022-10-01T06:51:49.889Z,38.28
2022-10-01T06:52:57.346Z,30.77
2022-10-01T06:54:00.143Z,31.58
2022-10-01T06:55:03.688Z,32.20
2022-10-01T06:56:08.592Z,31.35
2022-10-01T06:57:11.416Z,33.53
2022-10-01T06:58:18.486Z,32.90
2022-10-01T06:59:21.684Z,31.80
2022-10-01T07:00:24.028Z,32.97
2022-10-01T07:01:31.993Z,33.58
2022-10-01T07:02:38.076Z,32.70
2022-10-01T07:03:40.883Z,33.60
2022-10-01T07:04:45.508Z,34.15
2022-10-01T07:05:56.936Z,33.20
2022-10-01T07:07:08.720Z,32.88
2022-10-01T07:08:58.548Z,33.35
2022-10-01T07:11:30.504Z,33.20
2022-10-01T07:12:52.427Z,33.08
2022-10-01T07:14:32.152Z,31.10
2022-10-01T07:15:46.756Z,32.67
2022-10-01T07:18:39.666Z,33.25
2022-10-01T07:19:46.315Z,32.88
2022-10-01T07:20:59.437Z,32.05
2022-10-01T07:22:04.580Z,33.45
2022-10-01T07:24:30.848Z,32.45
2022-10-01T07:25:35.881Z,33.03
2022-10-01T07:28:10.982Z,32.63
2022-10-01T07:32:07.375Z,30.95
2022-10-01T07:35:59.327Z,36.35
2022-10-01T07:37:20.284Z,31.95
2022-10-01T07:40:17.604Z,29.27
2022-10-01T07:42:43.293Z,27.83
2022-10-01T07:44:12.702Z,28.85
2022-10-01T07:45:29.969Z,28.50
2022-10-01T07:46:40.348Z,30.05
2022-10-01T07:49:31.556Z,29.20
2022-10-01T07:50:45.297Z,30.27
2022-10-01T07:51:52.576Z,30.63
2022-10-01T07:54:28.439Z,30.77
2022-10-01T07:55:57.181Z,29.38
2022-10-01T07:57:05.217Z,35.38
2022-10-01T07:58:11.092Z,28.52
2022-10-01T07:59:22.669Z,27.80
2022-10-01T08:01:53.027Z,29.70
2022-10-01T08:06:51.946Z,28.95
2022-10-01T08:09:26.659Z,28.17
2022-10-01T08:12:10.018Z,29.38
2022-10-01T08:13:27.821Z,27.70
2022-10-01T08:14:56.800Z,28.30
2022-10-01T08:16:09.913Z,28.73
2022-10-01T08:17:15.869Z,28.80
2022-10-01T08:18:18.959Z,28.13
2022-10-01T08:19:22.338Z,28.75
2022-10-01T08:20:31.619Z,30.45
2022-10-01T08:21:36.196Z,28.58
2022-10-01T08:22:44.416Z,28.17
2022-10-01T08:23:51.589Z,28.57
2022-10-01T08:24:56.784Z,29.85
2022-10-01T08:26:06.267Z,29.75
2022-10-01T08:27:10.101Z,29.23
2022-10-01T08:28:13.179Z,29.48
2022-10-01T08:29:17.780Z,29.33
2022-10-01T08:30:20.214Z,29.95
2022-10-01T08:31:22.323Z,29.15
2022-10-01T08:32:26.569Z,33.38
2022-10-01T08:33:28.682Z,30.35
2022-10-01T08:34:33.949Z,30.83
2022-10-01T08:35:39.657Z,29.33
2022-10-01T08:36:43.144Z,30.75
2022-10-01T08:37:48.483Z,29.48
2022-10-01T08:38:50.688Z,30.30
2022-10-01T08:39:52.876Z,28.33
2022-10-01T08:40:58.007Z,28.55
2022-10-01T08:42:02.376Z,29.80
2022-10-01T08:43:07.275Z,36.90
2022-10-01T08:44:24.098Z,30.55
2022-10-01T08:45:35.120Z,31.67
2022-10-01T08:46:37.780Z,29.48
2022-10-01T08:47:53.758Z,30.40
2022-10-01T08:49:08.423Z,29.23
2022-10-01T08:50:27.424Z,29.75
2022-10-01T08:52:06.744Z,29.42
2022-10-01T08:53:18.793Z,30.45
2022-10-01T08:54:32.876Z,30.08
2022-10-01T08:55:37.802Z,29.10
2022-10-01T08:56:49.209Z,30.00
2022-10-01T08:58:01.026Z,29.77
2022-10-01T08:59:25.279Z,31.75
2022-10-01T09:00:32.920Z,29.33
2022-10-01T09:01:35.269Z,30.70
2022-10-01T09:02:44.385Z,29.83
2022-10-01T09:03:47.866Z,29.83
2022-10-01T09:05:01.073Z,29.05
2022-10-01T09:06:19.399Z,29.15
2022-10-01T09:08:08.636Z,29.20
2022-10-01T09:09:48.995Z,27.77
2022-10-01T09:11:01.240Z,28.83
2022-10-01T09:12:29.254Z,29.05
2022-10-01T09:13:57.721Z,30.08
2022-10-01T09:15:38.707Z,29.55
2022-10-01T09:17:20.780Z,28.88
2022-10-01T09:18:46.475Z,28.02
2022-10-01T09:20:11.714Z,28.40
2022-10-01T09:21:28.526Z,28.85
2022-10-01T09:22:53.563Z,29.30
2022-10-01T09:24:12.987Z,28.25
2022-10-01T09:25:25.763Z,29.48
2022-10-01T09:26:28.943Z,28.33
2022-10-01T09:27:32.138Z,29.25
2022-10-01T09:28:36.521Z,29.65
2022-10-01T09:30:01.349Z,37.45
2022-10-01T09:31:18.519Z,30.33
2022-10-01T09:32:25.184Z,30.02
2022-10-01T09:33:44.247Z,30.75
2022-10-01T09:34:47.870Z,29.95
2022-10-01T09:36:13.582Z,30.98
2022-10-01T09:37:15.941Z,30.35
2022-10-01T09:38:41.099Z,29.45
2022-10-01T09:40:04.105Z,30.27
2022-10-01T09:41:11.859Z,29.33
2022-10-01T09:42:14.340Z,30.05
2022-10-01T09:43:20.160Z,30.42
2022-10-01T09:44:29.773Z,29.75
2022-10-01T09:45:33.550Z,30.38
2022-10-01T09:46:36.037Z,30.73
2022-10-01T09:47:39.147Z,30.55
2022-10-01T09:48:46.590Z,30.80
2022-10-01T09:49:49.767Z,31.60
2022-10-01T09:51:26.028Z,29.92
2022-10-01T09:52:38.541Z,29.70
2022-10-01T09:53:49.695Z,33.00
2022-10-01T09:55:34.684Z,46.15
2022-10-01T09:56:45.593Z,29.75
2022-10-01T09:58:21.758Z,36.33
2022-10-01T09:59:58.821Z,30.52
2022-10-01T10:01:03.109Z,32.08
2022-10-01T10:02:19.657Z,29.98
2022-10-01T10:03:29.101Z,30.35
2022-10-01T10:04:33.254Z,30.50
2022-10-01T10:05:48.551Z,31.48
2022-10-01T10:06:58.489Z,30.58
2022-10-01T10:08:06.009Z,30.10
2022-10-01T10:09:16.258Z,30.90
2022-10-01T10:10:26.399Z,31.58
2022-10-01T10:11:33.545Z,31.75
2022-10-01T10:12:37.065Z,31.45
2022-10-01T10:13:51.122Z,31.15
2022-10-01T10:14:57.063Z,30.08
2022-10-01T10:16:00.656Z,31.00
2022-10-01T10:17:11.659Z,33.33
2022-10-01T10:18:23.652Z,31.70
2022-10-01T10:19:29.690Z,30.88
2022-10-01T10:20:40.712Z,31.65
2022-10-01T10:21:54.294Z,31.00
2022-10-01T10:23:16.114Z,30.48
2022-10-01T10:24:33.513Z,29.77
2022-10-01T10:25:35.792Z,31.70
2022-10-01T10:26:41.358Z,30.63
2022-10-01T10:27:56.968Z,31.90
2022-10-01T10:29:02.715Z,31.10
2022-10-01T10:30:15.407Z,31.30
2022-10-01T10:31:41.904Z,30.20
2022-10-01T10:32:47.308Z,29.13
2022-10-01T10:33:52.052Z,30.33
2022-10-01T10:35:02.888Z,29.08
2022-10-01T10:36:09.875Z,29.80
2022-10-01T10:37:18.699Z,29.38
2022-10-01T10:38:21.224Z,29.15
2022-10-01T10:39:31.304Z,29.27
2022-10-01T10:40:44.508Z,28.15
2022-10-01T10:41:50.382Z,29.52
2022-10-01T10:42:55.777Z,28.27
2022-10-01T10:44:08.156Z,28.90
2022-10-01T10:45:20.339Z,33.78
2022-10-01T10:46:30.287Z,30.50
2022-10-01T10:47:43.550Z,29.45
2022-10-01T10:48:46.832Z,29.27
2022-10-01T10:49:55.744Z,31.00
2022-10-01T10:52:40.000Z,27.38
2022-10-01T10:55:22.158Z,27.35
2022-10-01T10:56:25.610Z,26.48
2022-10-01T10:57:34.261Z,28.25
2022-10-01T10:58:40.721Z,26.83
2022-10-01T10:59:42.710Z,27.58
2022-10-01T11:00:50.625Z,28.02
2022-10-01T11:01:53.466Z,27.70
2022-10-01T11:03:04.497Z,27.95
2022-10-01T11:04:21.197Z,27.52
2022-10-01T11:05:30.422Z,29.23
2022-10-01T11:06:32.932Z,29.60
2022-10-01T11:07:38.062Z,27.48
2022-10-01T11:08:53.128Z,26.67
2022-10-01T11:10:06.217Z,26.67
2022-10-01T11:11:46.196Z,35.90
2022-10-01T11:13:07.181Z,27.60
2022-10-01T11:14:40.760Z,26.98
2022-10-01T11:16:04.584Z,25.63
2022-10-01T11:17:34.604Z,25.38
2022-10-01T11:18:40.129Z,25.73
2022-10-01T11:19:47.137Z,26.45
2022-10-01T11:21:00.400Z,25.73
2022-10-01T11:22:23.607Z,25.83
2022-10-01T11:23:42.500Z,25.25
2022-10-01T11:25:17.078Z,25.38
2022-10-01T11:26:41.031Z,28.73
2022-10-01T11:28:04.782Z,36.90
2022-10-01T11:29:33.017Z,26.38
2022-10-01T11:31:05.551Z,25.10
2022-10-01T11:32:22.624Z,25.45
2022-10-01T11:33:46.844Z,24.20
2022-10-01T11:35:24.832Z,25.85
2022-10-01T11:36:46.116Z,24.40
2022-10-01T11:39:32.934Z,25.23
2022-10-01T11:40:43.888Z,24.52
2022-10-01T11:41:53.432Z,24.95
2022-10-01T11:43:03.205Z,25.20
2022-10-01T11:44:38.438Z,24.25
2022-10-01T11:46:05.918Z,24.70
2022-10-01T11:47:19.471Z,25.42
2022-10-01T11:48:41.100Z,24.05
2022-10-01T11:50:04.632Z,25.00
2022-10-01T11:51:19.347Z,24.75
2022-10-01T11:52:34.346Z,24.30
2022-10-01T11:53:48.853Z,24.17
2022-10-01T11:55:28.849Z,23.75
2022-10-01T11:57:06.025Z,23.98
2022-10-01T11:58:44.309Z,25.63
2022-10-01T12:00:00.342Z,24.20
2022-10-01T12:01:19.982Z,24.05
2022-10-01T12:02:59.432Z,24.70
2022-10-01T12:04:32.700Z,23.58
2022-10-01T12:05:35.549Z,24.77
2022-10-01T12:07:17.090Z,22.85
2022-10-01T12:08:35.192Z,24.58
2022-10-01T12:10:03.704Z,23.33
2022-10-01T12:11:22.318Z,22.85
2022-10-01T12:12:50.180Z,23.02
2022-10-01T12:14:08.226Z,23.85
2022-10-01T12:15:47.153Z,23.25
2022-10-01T12:16:59.923Z,23.80
2022-10-01T12:18:12.529Z,22.80
2022-10-01T12:19:23.900Z,23.48
2022-10-01T12:20:36.720Z,22.88
2022-10-01T12:21:59.568Z,22.23
2022-10-01T12:23:09.326Z,22.75
2022-10-01T12:24:20.021Z,23.02
2022-10-01T12:25:41.002Z,23.60
2022-10-01T12:28:23.376Z,23.65
2022-10-01T12:29:56.066Z,24.40
2022-10-01T12:31:15.459Z,24.73
2022-10-01T12:32:41.230Z,24.23
2022-10-01T12:33:51.671Z,24.75
2022-10-01T12:35:07.821Z,24.00
2022-10-01T12:36:43.185Z,24.52
2022-10-01T12:38:16.557Z,22.70
2022-10-01T12:39:24.211Z,23.92
2022-10-01T12:40:46.686Z,23.65
2022-10-01T12:42:31.380Z,23.25
2022-10-01T12:44:11.581Z,23.67
2022-10-01T12:45:44.009Z,23.63
2022-10-01T12:47:23.414Z,22.88
2022-10-01T12:49:04.398Z,23.33
2022-10-01T12:50:53.348Z,24.27
2022-10-01T12:52:20.804Z,24.33
2022-10-01T12:53:52.166Z,25.08
2022-10-01T12:55:19.537Z,22.73
2022-10-01T12:56:31.062Z,24.63
2022-10-01T12:58:01.157Z,23.33
2022-10-01T12:59:14.540Z,24.00
2022-10-01T13:00:25.900Z,24.20
2022-10-01T13:01:50.531Z,24.27
2022-10-01T13:03:13.596Z,24.20
2022-10-01T13:04:48.286Z,23.95
2022-10-01T13:06:08.730Z,23.23
2022-10-01T13:07:30.121Z,23.13
2022-10-01T13:09:06.094Z,23.85
2022-10-01T13:10:31.674Z,22.95
2022-10-01T13:11:56.143Z,24.77
2022-10-01T13:13:15.342Z,24.38
2022-10-01T13:14:19.273Z,24.50
2022-10-01T13:15:25.980Z,24.98
2022-10-01T13:16:34.117Z,25.40
2022-10-01T13:17:43.827Z,28.88
2022-10-01T13:19:06.037Z,26.50
2022-10-01T13:20:36.155Z,26.35
2022-10-01T13:21:57.652Z,25.25
2022-10-01T13:23:14.080Z,25.52
2022-10-01T13:24:44.638Z,27.10
2022-10-01T13:26:00.624Z,25.05
2022-10-01T13:27:20.413Z,26.50
2022-10-01T13:28:34.359Z,26.13
2022-10-01T13:29:45.414Z,26.80
2022-10-01T13:30:53.272Z,26.80
2022-10-01T13:32:02.826Z,25.88
2022-10-01T13:33:29.621Z,28.30
2022-10-01T13:34:43.441Z,26.15
2022-10-01T13:35:56.150Z,27.17
2022-10-01T13:37:14.296Z,26.85
2022-10-01T13:38:29.427Z,25.55
2022-10-01T13:39:38.888Z,26.17
2022-10-01T13:40:42.123Z,26.88
2022-10-01T13:41:44.590Z,25.95
2022-10-01T13:42:48.798Z,27.02
2022-10-01T13:44:14.224Z,27.50
2022-10-01T13:45:37.296Z,26.52
2022-10-01T13:46:57.035Z,26.85
2022-10-01T13:48:15.041Z,43.50
2022-10-01T13:49:27.383Z,26.30
2022-10-01T13:50:30.007Z,26.42
2022-10-01T13:51:37.595Z,26.30
2022-10-01T13:52:40.005Z,26.20
2022-10-01T13:53:42.272Z,27.33
2022-10-01T13:54:51.391Z,27.35
2022-10-01T13:55:55.055Z,26.33
2022-10-01T13:57:08.954Z,27.50
2022-10-01T13:58:43.732Z,27.98
2022-10-01T13:59:45.873Z,27.38
2022-10-01T14:00:54.255Z,26.80
2022-10-01T14:01:58.847Z,26.67
2022-10-01T14:03:30.535Z,26.90
2022-10-01T14:04:43.974Z,27.73
2022-10-01T14:05:47.902Z,27.15
2022-10-01T14:07:17.864Z,26.88
2022-10-01T14:08:38.018Z,27.10
2022-10-01T14:09:50.598Z,27.15
2022-10-01T14:11:20.251Z,29.40
2022-10-01T14:13:06.803Z,30.35
2022-10-01T14:14:41.216Z,28.65
2022-10-01T14:15:59.316Z,39.70
2022-10-01T14:17:02.091Z,28.65
2022-10-01T14:18:11.591Z,28.45
2022-10-01T14:19:26.020Z,29.50
2022-10-01T14:20:34.478Z,27.95
2022-10-01T14:21:41.764Z,29.08
2022-10-01T14:22:49.634Z,28.45
2022-10-01T14:24:20.949Z,27.45
2022-10-01T14:25:35.548Z,27.75
2022-10-01T14:26:47.220Z,27.83
2022-10-01T14:28:16.997Z,27.85
2022-10-01T14:29:46.790Z,28.73
2022-10-01T14:31:12.719Z,28.52
2022-10-01T14:32:31.520Z,34.03
2022-10-01T14:35:04.766Z,80.78
2022-10-01T14:36:15.775Z,194.80
2022-10-01T14:37:19.918Z,169.02
2022-10-01T14:38:22.819Z,115.10
2022-10-01T14:39:31.632Z,83.68
2022-10-01T14:40:42.266Z,83.95
2022-10-01T14:41:46.438Z,43.72
2022-10-01T14:43:17.160Z,55.05
2022-10-01T14:44:27.058Z,48.95
2022-10-01T14:45:30.732Z,47.67
2022-10-01T14:46:36.893Z,38.25
2022-10-01T14:47:40.803Z,34.45
2022-10-01T14:48:43.968Z,32.25
2022-10-01T14:49:46.493Z,34.55
2022-10-01T14:50:52.961Z,32.05
2022-10-01T14:52:07.156Z,33.88
2022-10-01T14:53:16.993Z,51.00
2022-10-01T14:54:20.828Z,42.60
2022-10-01T14:55:24.450Z,37.80
2022-10-01T14:56:28.419Z,36.38
2022-10-01T14:57:42.856Z,34.83
2022-10-01T14:58:55.192Z,34.25
2022-10-01T15:00:00.903Z,33.75
2022-10-01T15:01:05.096Z,33.35
2022-10-01T15:02:33.303Z,34.90
2022-10-01T15:03:40.944Z,41.30
2022-10-01T15:04:52.060Z,34.42
2022-10-01T15:06:04.113Z,31.63
2022-10-01T15:07:13.874Z,30.77
2022-10-01T15:08:16.204Z,33.97
2022-10-01T15:09:19.761Z,32.42
2022-10-01T15:10:27.035Z,33.35
2022-10-01T15:11:32.037Z,31.27
2022-10-01T15:12:41.575Z,32.67
2022-10-01T15:13:46.353Z,36.75
2022-10-01T15:14:54.245Z,36.40
2022-10-01T15:15:59.645Z,67.97
2022-10-01T15:17:04.958Z,59.17
2022-10-01T15:18:08.376Z,42.78
2022-10-01T15:19:21.153Z,42.35
2022-10-01T15:20:23.497Z,34.60
2022-10-01T15:21:49.499Z,35.10
2022-10-01T15:23:01.021Z,31.13
2022-10-01T15:24:19.030Z,32.65
2022-10-01T15:25:28.394Z,30.35
2022-10-01T15:26:33.646Z,31.95
2022-10-01T15:27:37.585Z,31.63
2022-10-01T15:28:39.926Z,30.88
2022-10-01T15:29:43.459Z,31.27
2022-10-01T15:30:48.040Z,30.35
2022-10-01T15:31:51.819Z,32.05
2022-10-01T15:32:54.907Z,33.00
2022-10-01T15:33:57.410Z,34.42
2022-10-01T15:35:02.133Z,36.33
2022-10-01T15:36:06.145Z,41.63
2022-10-01T15:37:18.086Z,42.85
2022-10-01T15:38:21.199Z,55.35
2022-10-01T15:39:27.248Z,47.58
2022-10-01T15:40:36.707Z,56.60
2022-10-01T15:41:40.366Z,47.00
2022-10-01T15:43:09.350Z,61.03
2022-10-01T15:44:46.575Z,54.67
2022-10-01T15:46:03.192Z,49.50
2022-10-01T15:47:20.476Z,47.28
2022-10-01T15:48:30.669Z,49.75
2022-10-01T15:49:33.690Z,39.92
2022-10-01T15:50:39.190Z,47.45
2022-10-01T15:52:20.047Z,38.25
2022-10-01T15:53:23.867Z,38.28
2022-10-01T15:54:26.809Z,35.45
2022-10-01T15:55:31.816Z,36.75
2022-10-01T15:56:35.171Z,39.88
2022-10-01T15:57:38.708Z,41.42
2022-10-01T15:58:51.561Z,54.53
2022-10-01T15:59:58.271Z,48.97
2022-10-01T16:01:11.247Z,39.22
2022-10-01T16:02:21.088Z,40.75
2022-10-01T16:03:27.548Z,42.80
2022-10-01T16:04:32.067Z,37.53
2022-10-01T16:05:44.916Z,32.72
2022-10-01T16:06:50.335Z,32.95
2022-10-01T16:07:58.685Z,35.30
2022-10-01T16:09:06.357Z,37.83
2022-10-01T16:10:32.287Z,41.83
2022-10-01T16:11:56.912Z,48.15
2022-10-01T16:13:39.996Z,37.80
2022-10-01T16:14:44.547Z,38.63
2022-10-01T16:16:07.044Z,34.97
2022-10-01T16:17:19.616Z,33.40
2022-10-01T16:18:22.609Z,34.65
2022-10-01T16:19:33.875Z,35.83
2022-10-01T16:20:45.591Z,33.35
2022-10-01T16:22:16.798Z,93.25
2022-10-01T16:23:34.280Z,61.33
2022-10-01T16:24:43.803Z,41.85
2022-10-01T16:25:46.413Z,36.85
2022-10-01T16:26:48.973Z,34.78
2022-10-01T16:28:04.484Z,34.83
2022-10-01T16:29:20.923Z,34.55
2022-10-01T16:30:29.565Z,32.38
2022-10-01T16:31:35.429Z,33.47
2022-10-01T16:32:38.696Z,32.42
2022-10-01T16:33:40.998Z,32.92
2022-10-01T16:34:48.447Z,31.98
2022-10-01T16:35:51.134Z,33.05
2022-10-01T16:36:53.498Z,31.73
2022-10-01T16:37:58.174Z,32.40
2022-10-01T16:39:02.474Z,32.03
2022-10-01T16:40:08.686Z,33.55
2022-10-01T16:41:23.967Z,32.03
2022-10-01T16:42:26.285Z,32.65
2022-10-01T16:43:28.741Z,31.35
2022-10-01T16:44:32.729Z,31.23
2022-10-01T16:45:43.198Z,32.30
2022-10-01T16:46:46.236Z,30.77
2022-10-01T16:47:49.126Z,30.85
2022-10-01T16:48:52.473Z,29.15
2022-10-01T16:49:57.452Z,30.70
2022-10-01T16:50:59.555Z,34.33
2022-10-01T16:52:03.230Z,29.27
2022-10-01T16:53:05.529Z,27.25
2022-10-01T16:54:27.619Z,28.35
2022-10-01T16:55:36.777Z,28.38
2022-10-01T16:56:41.804Z,27.83
2022-10-01T16:57:44.858Z,33.03
2022-10-01T16:58:47.178Z,27.00
2022-10-01T16:59:49.779Z,26.52
2022-10-01T17:00:53.564Z,26.30
2022-10-01T17:01:57.227Z,26.83
2022-10-01T17:03:00.475Z,33.15
2022-10-01T17:04:02.717Z,28.38
2022-10-01T17:05:06.517Z,30.73
2022-10-01T17:06:08.917Z,29.65
2022-10-01T17:07:11.734Z,31.60
2022-10-01T17:08:15.433Z,41.35
2022-10-01T17:09:19.688Z,30.95
2022-10-01T17:10:24.024Z,25.80
2022-10-01T17:11:27.435Z,23.80
2022-10-01T17:12:30.753Z,25.08
2022-10-01T17:13:34.679Z,25.05
2022-10-01T17:14:37.862Z,24.63
2022-10-01T17:15:45.586Z,25.27
2022-10-01T17:16:50.882Z,25.07
2022-10-01T17:18:00.072Z,24.50
2022-10-01T17:20:49.863Z,25.88
2022-10-01T17:21:53.356Z,26.00
2022-10-01T17:22:57.915Z,26.05
2022-10-01T17:24:01.096Z,26.33
2022-10-01T17:25:03.911Z,26.48
2022-10-01T17:26:09.777Z,25.65
2022-10-01T17:27:12.396Z,26.67
2022-10-01T17:28:17.768Z,27.80
2022-10-01T17:29:21.625Z,29.40
2022-10-01T17:30:24.288Z,27.80
2022-10-01T17:31:27.719Z,30.27
2022-10-01T17:32:32.452Z,26.90
2022-10-01T17:33:35.310Z,26.90
2022-10-01T17:34:38.289Z,25.88
2022-10-01T17:35:43.545Z,27.70
2022-10-01T17:36:46.160Z,28.17
2022-10-01T17:37:48.668Z,26.95
2022-10-01T17:38:52.263Z,26.73
2022-10-01T17:39:55.094Z,25.88
2022-10-01T17:41:00.256Z,26.98
2022-10-01T17:42:02.562Z,26.33
2022-10-01T17:43:05.230Z,28.88
2022-10-01T17:44:07.864Z,32.03
2022-10-01T17:45:12.078Z,48.83
2022-10-01T17:46:14.614Z,34.58
2022-10-01T17:47:17.396Z,33.30
2022-10-01T17:48:21.979Z,30.52
2022-10-01T17:49:24.479Z,29.27
2022-10-01T17:50:27.108Z,34.40
2022-10-01T17:51:29.364Z,34.95
2022-10-01T17:52:33.675Z,30.88
2022-10-01T17:53:42.632Z,29.88
2022-10-01T17:54:45.659Z,30.20
2022-10-01T17:55:47.818Z,29.42
2022-10-01T17:56:58.213Z,30.30
2022-10-01T17:58:01.559Z,28.83
2022-10-01T17:59:04.477Z,29.75
2022-10-01T18:00:09.094Z,29.67
2022-10-01T18:01:20.221Z,29.85
2022-10-01T18:02:42.213Z,30.75
2022-10-01T18:03:44.912Z,30.88
2022-10-01T18:04:47.796Z,29.92
2022-10-01T18:05:51.070Z,30.23
2022-10-01T18:06:59.654Z,29.63
2022-10-01T18:08:03.205Z,30.45
2022-10-01T18:09:06.340Z,28.77
2022-10-01T18:10:12.426Z,30.15
2022-10-01T18:11:14.631Z,29.65
2022-10-01T18:12:17.147Z,29.35
2022-10-01T18:13:19.398Z,28.75
2022-10-01T18:14:21.997Z,29.00
2022-10-01T18:15:24.955Z,29.40
2022-10-01T18:16:29.120Z,29.85
2022-10-01T18:17:36.795Z,29.25
2022-10-01T18:20:02.847Z,29.45
2022-10-01T18:21:09.300Z,32.38
2022-10-01T18:22:14.578Z,27.95
2022-10-01T18:23:18.099Z,30.63
2022-10-01T18:24:20.466Z,30.85
2022-10-01T18:25:22.785Z,30.20
2022-10-01T18:26:25.143Z,31.70
2022-10-01T18:27:27.352Z,41.20
2022-10-01T18:28:29.995Z,32.50
2022-10-01T18:29:32.973Z,32.33
2022-10-01T18:30:36.348Z,31.58
2022-10-01T18:31:45.365Z,30.08
2022-10-01T18:34:02.176Z,28.63
2022-10-01T18:35:20.075Z,33.08
2022-10-01T18:36:37.064Z,37.45
2022-10-01T18:37:40.352Z,35.38
2022-10-01T18:38:43.238Z,30.02
2022-10-01T18:39:53.007Z,31.02
2022-10-01T18:41:02.042Z,32.33
2022-10-01T18:43:24.951Z,30.10
2022-10-01T18:44:27.407Z,31.08
2022-10-01T18:45:52.907Z,29.65
2022-10-01T18:47:11.607Z,28.98
2022-10-01T18:48:40.397Z,30.65
2022-10-01T18:50:27.728Z,31.27
2022-10-01T18:51:56.736Z,29.57
2022-10-01T18:53:34.919Z,30.63
2022-10-01T18:54:38.092Z,30.15
2022-10-01T18:55:49.311Z,30.88